Vendome Street — A8YI6 — position and weather

sailwx.info

Track history (hours):
 
Tides and Currents Weather Stations Pressure Air Temp Water Temp Dewpoint Dewpoint Depression Visibility Wind Speed Wind Dir Waves Ship Positions

Vendome Street

Last reported at 2015-Dec-09 22:33 UTC. Time now 2016-Feb-12 01:24 UTC.
Position N 36°21' W 026°11'.
Warning: this ship's position is months out of date.

Length 177 m; draft 12.1 m.

Type: Ship. MMSI: 636015064.

Date/timePositionNaut miles runAvg speedWind from/ knotsBaromVisibWave heightAir tempDewpointWater temp
2015-Dec-09 22:33N 36°21' W 026°11'1313.5
2015-Dec-09 21:34N 36°25' W 025°55'1413.6
2015-Dec-09 20:33N 36°28' W 025°38'1313.5
2015-Dec-09 19:33N 36°31' W 025°22'1413.6
2015-Dec-09 18:34N 36°35' W 025°06'1313.4
2015-Dec-09 17:33N 36°40' W 024°50'1313.3
2015-Dec-09 16:33N 36°46' W 024°35'1313.3
2015-Dec-09 15:34N 36°51' W 024°20'1313.3
2015-Dec-09 14:33N 36°57' W 024°05'1313.1
2015-Dec-09 13:33N 37°03' W 023°50'1312.8
2015-Dec-09 12:34N 37°09' W 023°36'1212.5
2015-Dec-09 11:33N 37°14' W 023°22'259 6.0
2015-Dec-07 16:19N 39°43' W 027°53'911.8
2015-Dec-07 15:33N 39°44' W 028°05'1211.8
2015-Dec-07 14:33N 39°45' W 028°20'1111.4
2015-Dec-07 13:33N 39°47' W 028°35'1111.4
2015-Dec-07 12:33N 39°48' W 028°49'1211.6
2015-Dec-07 11:33N 39°50' W 029°04'1211.7
2015-Dec-07 10:33N 39°52' W 029°19'1111.5
2015-Dec-07 09:33N 39°53' W 029°34'1211.5
2015-Dec-07 08:33N 39°55' W 029°49'  
Track history (hours):
 
Tides and Currents Weather Stations Pressure Air Temp Water Temp Dewpoint Dewpoint Depression Visibility Wind Speed Wind Dir Waves Ship Positions

Vendome Street

Last reported at 2015-Dec-09 22:33 UTC. Time now 2016-Feb-12 01:24 UTC.
Position N 36°21' W 026°11'.
Warning: this ship's position is months out of date.

Length 177 m; draft 12.1 m.

Type: Ship. MMSI: 636015064.

Date/timePositionNaut miles runAvg speedWind from/ knotsBaromVisibWave heightAir tempDewpointWater temp
2015-Dec-09 22:33N 36°21' W 026°11'1313.5
2015-Dec-09 21:34N 36°25' W 025°55'1413.6
2015-Dec-09 20:33N 36°28' W 025°38'1313.5
2015-Dec-09 19:33N 36°31' W 025°22'1413.6
2015-Dec-09 18:34N 36°35' W 025°06'1313.4
2015-Dec-09 17:33N 36°40' W 024°50'1313.3
2015-Dec-09 16:33N 36°46' W 024°35'1313.3
2015-Dec-09 15:34N 36°51' W 024°20'1313.3
2015-Dec-09 14:33N 36°57' W 024°05'1313.1
2015-Dec-09 13:33N 37°03' W 023°50'1312.8
2015-Dec-09 12:34N 37°09' W 023°36'1212.5
2015-Dec-09 11:33N 37°14' W 023°22'259 6.0
2015-Dec-07 16:19N 39°43' W 027°53'911.8
2015-Dec-07 15:33N 39°44' W 028°05'1211.8
2015-Dec-07 14:33N 39°45' W 028°20'1111.4
2015-Dec-07 13:33N 39°47' W 028°35'1111.4
2015-Dec-07 12:33N 39°48' W 028°49'1211.6
2015-Dec-07 11:33N 39°50' W 029°04'1211.7
2015-Dec-07 10:33N 39°52' W 029°19'1111.5
2015-Dec-07 09:33N 39°53' W 029°34'1211.5
2015-Dec-07 08:33N 39°55' W 029°49'  

Dump ship's entire track history